sensor_id;sensor_type;location;lat;lon;timestamp;P1;durP1;ratioP1;P2;durP2;ratioP2
1475;SDS011;730;48.870;12.542;2023-01-10T00:01:42;1.77;;;1.65;;
1475;SDS011;730;48.870;12.542;2023-01-10T00:04:08;3.30;;;2.05;;
1475;SDS011;730;48.870;12.542;2023-01-10T00:06:34;2.95;;;1.98;;
1475;SDS011;730;48.870;12.542;2023-01-10T00:09:00;7.13;;;1.73;;
1475;SDS011;730;48.870;12.542;2023-01-10T00:11:26;3.13;;;2.10;;
1475;SDS011;730;48.870;12.542;2023-01-10T00:14:11;6.22;;;2.28;;
1475;SDS011;730;48.870;12.542;2023-01-10T00:16:37;3.10;;;1.85;;
1475;SDS011;730;48.870;12.542;2023-01-10T00:19:05;1.73;;;1.60;;
1475;SDS011;730;48.870;12.542;2023-01-10T00:21:31;2.95;;;2.25;;
1475;SDS011;730;48.870;12.542;2023-01-10T00:23:57;2.70;;;1.48;;
1475;SDS011;730;48.870;12.542;2023-01-10T00:26:28;4.63;;;3.15;;
1475;SDS011;730;48.870;12.542;2023-01-10T00:28:54;2.47;;;1.93;;
1475;SDS011;730;48.870;12.542;2023-01-10T00:31:20;2.35;;;1.92;;
1475;SDS011;730;48.870;12.542;2023-01-10T00:33:46;2.10;;;1.90;;
1475;SDS011;730;48.870;12.542;2023-01-10T00:36:13;3.72;;;2.45;;
1475;SDS011;730;48.870;12.542;2023-01-10T00:38:39;2.63;;;1.83;;
1475;SDS011;730;48.870;12.542;2023-01-10T00:41:05;3.00;;;2.40;;
1475;SDS011;730;48.870;12.542;2023-01-10T00:43:51;6.80;;;2.00;;
1475;SDS011;730;48.870;12.542;2023-01-10T00:46:23;2.25;;;2.05;;
1475;SDS011;730;48.870;12.542;2023-01-10T00:48:52;2.10;;;1.90;;
1475;SDS011;730;48.870;12.542;2023-01-10T00:51:18;2.10;;;1.90;;
1475;SDS011;730;48.870;12.542;2023-01-10T00:53:44;2.25;;;1.75;;
1475;SDS011;730;48.870;12.542;2023-01-10T00:56:10;3.35;;;2.38;;
1475;SDS011;730;48.870;12.542;2023-01-10T00:58:36;1.95;;;1.50;;
1475;SDS011;730;48.870;12.542;2023-01-10T01:01:02;2.67;;;1.53;;
1475;SDS011;730;48.870;12.542;2023-01-10T01:03:28;2.28;;;1.70;;
1475;SDS011;730;48.870;12.542;2023-01-10T01:05:54;1.65;;;1.42;;
1475;SDS011;730;48.870;12.542;2023-01-10T01:08:20;1.75;;;1.55;;
1475;SDS011;730;48.870;12.542;2023-01-10T01:10:46;2.33;;;1.60;;
1475;SDS011;730;48.870;12.542;2023-01-10T01:13:20;1.75;;;1.40;;
1475;SDS011;730;48.870;12.542;2023-01-10T01:15:46;2.00;;;1.58;;
1475;SDS011;730;48.870;12.542;2023-01-10T01:18:13;2.05;;;1.40;;
1475;SDS011;730;48.870;12.542;2023-01-10T01:20:42;1.98;;;1.15;;
1475;SDS011;730;48.870;12.542;2023-01-10T01:23:10;2.67;;;1.50;;
1475;SDS011;730;48.870;12.542;2023-01-10T01:25:36;1.60;;;1.40;;
1475;SDS011;730;48.870;12.542;2023-01-10T01:28:03;2.55;;;1.02;;
1475;SDS011;730;48.870;12.542;2023-01-10T01:30:29;2.47;;;0.95;;
1475;SDS011;730;48.870;12.542;2023-01-10T01:32:55;2.38;;;1.17;;
1475;SDS011;730;48.870;12.542;2023-01-10T01:35:21;1.65;;;1.20;;
1475;SDS011;730;48.870;12.542;2023-01-10T01:37:47;1.70;;;1.00;;
1475;SDS011;730;48.870;12.542;2023-01-10T01:40:14;1.90;;;1.40;;
1475;SDS011;730;48.870;12.542;2023-01-10T01:42:42;1.90;;;1.23;;
1475;SDS011;730;48.870;12.542;2023-01-10T01:47:46;1.85;;;1.10;;
1475;SDS011;730;48.870;12.542;2023-01-10T01:50:33;2.22;;;1.10;;
1475;SDS011;730;48.870;12.542;2023-01-10T01:53:16;2.22;;;1.33;;
1475;SDS011;730;48.870;12.542;2023-01-10T01:56:04;2.20;;;1.25;;
1475;SDS011;730;48.870;12.542;2023-01-10T01:58:38;1.55;;;1.30;;
1475;SDS011;730;48.870;12.542;2023-01-10T02:01:29;3.17;;;1.30;;
1475;SDS011;730;48.870;12.542;2023-01-10T02:03:58;2.05;;;1.45;;
1475;SDS011;730;48.870;12.542;2023-01-10T02:06:32;1.65;;;1.30;;
1475;SDS011;730;48.870;12.542;2023-01-10T02:09:02;2.60;;;1.30;;
1475;SDS011;730;48.870;12.542;2023-01-10T02:11:37;2.75;;;1.58;;
1475;SDS011;730;48.870;12.542;2023-01-10T02:14:03;2.28;;;1.58;;
1475;SDS011;730;48.870;12.542;2023-01-10T02:16:31;3.40;;;1.58;;
1475;SDS011;730;48.870;12.542;2023-01-10T02:18:57;1.60;;;1.17;;
1475;SDS011;730;48.870;12.542;2023-01-10T02:24:28;1.83;;;1.50;;
1475;SDS011;730;48.870;12.542;2023-01-10T02:27:19;2.58;;;1.40;;
1475;SDS011;730;48.870;12.542;2023-01-10T02:32:51;5.55;;;2.33;;
1475;SDS011;730;48.870;12.542;2023-01-10T02:46:43;1.50;;;1.38;;
1475;SDS011;730;48.870;12.542;2023-01-10T02:49:10;2.25;;;2.05;;
1475;SDS011;730;48.870;12.542;2023-01-10T02:51:36;2.90;;;1.85;;
1475;SDS011;730;48.870;12.542;2023-01-10T02:57:08;1.70;;;1.58;;
1475;SDS011;730;48.870;12.542;2023-01-10T03:10:11;2.00;;;1.80;;
1475;SDS011;730;48.870;12.542;2023-01-10T03:12:56;2.20;;;2.00;;
1475;SDS011;730;48.870;12.542;2023-01-10T03:15:31;1.95;;;1.70;;
1475;SDS011;730;48.870;12.542;2023-01-10T03:18:01;2.90;;;2.00;;
1475;SDS011;730;48.870;12.542;2023-01-10T03:20:32;2.35;;;1.98;;
1475;SDS011;730;48.870;12.542;2023-01-10T03:23:02;3.42;;;1.98;;
1475;SDS011;730;48.870;12.542;2023-01-10T03:25:31;2.20;;;1.80;;
1475;SDS011;730;48.870;12.542;2023-01-10T03:28:06;2.75;;;2.10;;
1475;SDS011;730;48.870;12.542;2023-01-10T03:30:44;2.45;;;1.98;;
1475;SDS011;730;48.870;12.542;2023-01-10T03:33:27;2.67;;;2.42;;
1475;SDS011;730;48.870;12.542;2023-01-10T03:35:59;2.30;;;2.10;;
1475;SDS011;730;48.870;12.542;2023-01-10T03:44:31;2.15;;;1.95;;
1475;SDS011;730;48.870;12.542;2023-01-10T03:49:49;2.30;;;2.03;;
1475;SDS011;730;48.870;12.542;2023-01-10T03:52:20;3.10;;;2.50;;
1475;SDS011;730;48.870;12.542;2023-01-10T03:54:47;2.17;;;1.80;;
1475;SDS011;730;48.870;12.542;2023-01-10T03:57:18;2.72;;;2.40;;
1475;SDS011;730;48.870;12.542;2023-01-10T03:59:52;2.35;;;2.15;;
1475;SDS011;730;48.870;12.542;2023-01-10T04:02:26;2.40;;;2.20;;
1475;SDS011;730;48.870;12.542;2023-01-10T04:04:54;2.28;;;2.08;;
1475;SDS011;730;48.870;12.542;2023-01-10T04:07:20;2.33;;;1.73;;
1475;SDS011;730;48.870;12.542;2023-01-10T04:09:46;2.28;;;2.08;;
1475;SDS011;730;48.870;12.542;2023-01-10T04:12:13;3.03;;;2.40;;
1475;SDS011;730;48.870;12.542;2023-01-10T04:14:39;2.88;;;2.33;;
1475;SDS011;730;48.870;12.542;2023-01-10T04:17:05;2.50;;;2.30;;
1475;SDS011;730;48.870;12.542;2023-01-10T04:19:31;2.03;;;1.83;;
1475;SDS011;730;48.870;12.542;2023-01-10T04:22:04;2.30;;;2.05;;
1475;SDS011;730;48.870;12.542;2023-01-10T04:24:32;2.30;;;1.88;;
1475;SDS011;730;48.870;12.542;2023-01-10T04:26:58;2.10;;;1.90;;
1475;SDS011;730;48.870;12.542;2023-01-10T04:29:25;2.08;;;1.95;;
1475;SDS011;730;48.870;12.542;2023-01-10T04:31:52;2.40;;;2.05;;
1475;SDS011;730;48.870;12.542;2023-01-10T04:34:18;3.25;;;2.80;;
1475;SDS011;730;48.870;12.542;2023-01-10T04:36:47;1.77;;;1.35;;
1475;SDS011;730;48.870;12.542;2023-01-10T04:39:14;1.65;;;1.50;;
1475;SDS011;730;48.870;12.542;2023-01-10T04:41:41;2.10;;;1.90;;
1475;SDS011;730;48.870;12.542;2023-01-10T04:44:07;2.60;;;1.90;;
1475;SDS011;730;48.870;12.542;2023-01-10T04:46:33;2.63;;;1.70;;
1475;SDS011;730;48.870;12.542;2023-01-10T04:48:59;3.35;;;1.98;;
1475;SDS011;730;48.870;12.542;2023-01-10T04:51:27;2.10;;;1.90;;
1475;SDS011;730;48.870;12.542;2023-01-10T04:53:54;2.25;;;1.75;;
1475;SDS011;730;48.870;12.542;2023-01-10T04:56:21;2.00;;;1.45;;
1475;SDS011;730;48.870;12.542;2023-01-10T04:58:48;1.70;;;1.50;;
1475;SDS011;730;48.870;12.542;2023-01-10T05:01:20;2.80;;;1.95;;
1475;SDS011;730;48.870;12.542;2023-01-10T05:03:50;2.30;;;1.90;;
1475;SDS011;730;48.870;12.542;2023-01-10T05:06:17;4.30;;;2.85;;
1475;SDS011;730;48.870;12.542;2023-01-10T05:08:44;3.03;;;2.35;;
1475;SDS011;730;48.870;12.542;2023-01-10T05:11:10;2.75;;;2.20;;
1475;SDS011;730;48.870;12.542;2023-01-10T05:13:37;3.20;;;2.40;;
1475;SDS011;730;48.870;12.542;2023-01-10T05:16:04;2.53;;;2.25;;
1475;SDS011;730;48.870;12.542;2023-01-10T05:18:31;2.70;;;2.50;;
1475;SDS011;730;48.870;12.542;2023-01-10T05:20:58;3.05;;;2.75;;
1475;SDS011;730;48.870;12.542;2023-01-10T05:23:25;2.50;;;2.30;;
1475;SDS011;730;48.870;12.542;2023-01-10T05:25:52;2.13;;;1.83;;
1475;SDS011;730;48.870;12.542;2023-01-10T05:28:18;3.65;;;2.72;;
1475;SDS011;730;48.870;12.542;2023-01-10T05:30:44;3.10;;;2.80;;
1475;SDS011;730;48.870;12.542;2023-01-10T05:33:10;3.00;;;2.57;;
1475;SDS011;730;48.870;12.542;2023-01-10T05:35:36;4.10;;;3.17;;
1475;SDS011;730;48.870;12.542;2023-01-10T05:38:02;3.47;;;2.53;;
1475;SDS011;730;48.870;12.542;2023-01-10T05:40:28;3.03;;;2.40;;
1475;SDS011;730;48.870;12.542;2023-01-10T05:42:54;3.00;;;2.35;;
1475;SDS011;730;48.870;12.542;2023-01-10T05:45:21;4.60;;;2.72;;
1475;SDS011;730;48.870;12.542;2023-01-10T05:47:47;2.60;;;2.40;;
1475;SDS011;730;48.870;12.542;2023-01-10T05:50:15;3.10;;;2.60;;
1475;SDS011;730;48.870;12.542;2023-01-10T05:52:41;3.30;;;3.00;;
1475;SDS011;730;48.870;12.542;2023-01-10T05:55:07;3.10;;;2.75;;
1475;SDS011;730;48.870;12.542;2023-01-10T05:57:33;2.40;;;2.00;;
1475;SDS011;730;48.870;12.542;2023-01-10T05:59:59;3.03;;;2.40;;
1475;SDS011;730;48.870;12.542;2023-01-10T06:02:25;3.40;;;2.80;;
1475;SDS011;730;48.870;12.542;2023-01-10T06:04:51;2.90;;;2.58;;
1475;SDS011;730;48.870;12.542;2023-01-10T06:07:20;5.28;;;3.03;;
1475;SDS011;730;48.870;12.542;2023-01-10T06:09:46;3.38;;;3.08;;
1475;SDS011;730;48.870;12.542;2023-01-10T06:12:15;3.90;;;3.53;;
1475;SDS011;730;48.870;12.542;2023-01-10T06:14:43;3.40;;;3.10;;
1475;SDS011;730;48.870;12.542;2023-01-10T06:17:10;3.95;;;3.38;;
1475;SDS011;730;48.870;12.542;2023-01-10T06:19:36;6.45;;;4.50;;
1475;SDS011;730;48.870;12.542;2023-01-10T06:22:02;3.78;;;3.47;;
1475;SDS011;730;48.870;12.542;2023-01-10T06:24:29;4.65;;;3.35;;
1475;SDS011;730;48.870;12.542;2023-01-10T06:26:55;4.63;;;3.83;;
1475;SDS011;730;48.870;12.542;2023-01-10T06:29:21;6.93;;;3.65;;
1475;SDS011;730;48.870;12.542;2023-01-10T06:31:47;4.00;;;3.60;;
1475;SDS011;730;48.870;12.542;2023-01-10T06:34:14;3.42;;;3.13;;
1475;SDS011;730;48.870;12.542;2023-01-10T06:36:40;5.22;;;4.13;;
1475;SDS011;730;48.870;12.542;2023-01-10T06:39:06;5.13;;;4.03;;
1475;SDS011;730;48.870;12.542;2023-01-10T06:41:32;4.23;;;3.87;;
1475;SDS011;730;48.870;12.542;2023-01-10T06:43:58;4.72;;;4.22;;
1475;SDS011;730;48.870;12.542;2023-01-10T06:46:24;3.78;;;3.47;;
1475;SDS011;730;48.870;12.542;2023-01-10T06:48:58;3.58;;;3.03;;
1475;SDS011;730;48.870;12.542;2023-01-10T06:51:24;4.13;;;3.72;;
1475;SDS011;730;48.870;12.542;2023-01-10T06:53:51;3.60;;;3.30;;
1475;SDS011;730;48.870;12.542;2023-01-10T06:56:17;3.75;;;3.45;;
1475;SDS011;730;48.870;12.542;2023-01-10T06:58:43;3.50;;;3.20;;
1475;SDS011;730;48.870;12.542;2023-01-10T07:01:13;3.40;;;3.10;;
1475;SDS011;730;48.870;12.542;2023-01-10T07:03:41;3.97;;;3.58;;
1475;SDS011;730;48.870;12.542;2023-01-10T07:06:07;3.08;;;2.78;;
1475;SDS011;730;48.870;12.542;2023-01-10T07:08:40;3.53;;;3.22;;
1475;SDS011;730;48.870;12.542;2023-01-10T07:11:09;4.00;;;3.08;;
1475;SDS011;730;48.870;12.542;2023-01-10T07:13:36;3.83;;;3.35;;
1475;SDS011;730;48.870;12.542;2023-01-10T07:16:03;3.85;;;3.30;;
1475;SDS011;730;48.870;12.542;2023-01-10T07:18:32;3.70;;;3.20;;
1475;SDS011;730;48.870;12.542;2023-01-10T07:20:59;2.97;;;2.65;;
1475;SDS011;730;48.870;12.542;2023-01-10T07:23:25;2.92;;;2.50;;
1475;SDS011;730;48.870;12.542;2023-01-10T07:25:51;3.83;;;3.42;;
1475;SDS011;730;48.870;12.542;2023-01-10T07:28:17;4.32;;;2.72;;
1475;SDS011;730;48.870;12.542;2023-01-10T07:30:43;3.00;;;2.75;;
1475;SDS011;730;48.870;12.542;2023-01-10T07:33:09;2.90;;;2.63;;
1475;SDS011;730;48.870;12.542;2023-01-10T07:35:36;3.58;;;3.22;;
1475;SDS011;730;48.870;12.542;2023-01-10T07:38:02;3.80;;;2.70;;
1475;SDS011;730;48.870;12.542;2023-01-10T07:40:28;3.00;;;2.70;;
1475;SDS011;730;48.870;12.542;2023-01-10T07:42:57;3.83;;;3.13;;
1475;SDS011;730;48.870;12.542;2023-01-10T07:45:25;3.67;;;2.80;;
1475;SDS011;730;48.870;12.542;2023-01-10T07:47:59;2.92;;;2.30;;
1475;SDS011;730;48.870;12.542;2023-01-10T07:50:27;2.55;;;2.35;;
1475;SDS011;730;48.870;12.542;2023-01-10T07:52:54;2.92;;;2.55;;
1475;SDS011;730;48.870;12.542;2023-01-10T07:55:21;2.97;;;2.60;;
1475;SDS011;730;48.870;12.542;2023-01-10T07:57:48;2.60;;;2.40;;
1475;SDS011;730;48.870;12.542;2023-01-10T08:00:15;2.58;;;2.33;;
1475;SDS011;730;48.870;12.542;2023-01-10T08:02:42;3.08;;;2.78;;
1475;SDS011;730;48.870;12.542;2023-01-10T08:05:09;3.20;;;2.90;;
1475;SDS011;730;48.870;12.542;2023-01-10T08:07:36;3.30;;;3.00;;
1475;SDS011;730;48.870;12.542;2023-01-10T08:10:03;3.55;;;3.10;;
1475;SDS011;730;48.870;12.542;2023-01-10T08:12:29;5.55;;;3.05;;
1475;SDS011;730;48.870;12.542;2023-01-10T08:14:56;4.10;;;3.58;;
1475;SDS011;730;48.870;12.542;2023-01-10T08:17:22;3.80;;;3.50;;
1475;SDS011;730;48.870;12.542;2023-01-10T08:19:48;3.28;;;2.85;;
1475;SDS011;730;48.870;12.542;2023-01-10T08:22:14;3.30;;;3.00;;
1475;SDS011;730;48.870;12.542;2023-01-10T08:24:40;3.20;;;2.90;;
1475;SDS011;730;48.870;12.542;2023-01-10T08:27:06;2.75;;;2.55;;
1475;SDS011;730;48.870;12.542;2023-01-10T08:29:32;5.35;;;2.80;;
1475;SDS011;730;48.870;12.542;2023-01-10T08:31:58;3.67;;;3.13;;
1475;SDS011;730;48.870;12.542;2023-01-10T08:34:24;4.65;;;3.22;;
1475;SDS011;730;48.870;12.542;2023-01-10T08:36:51;5.05;;;4.15;;
1475;SDS011;730;48.870;12.542;2023-01-10T08:39:18;5.53;;;3.83;;
1475;SDS011;730;48.870;12.542;2023-01-10T08:41:47;3.78;;;3.38;;
1475;SDS011;730;48.870;12.542;2023-01-10T08:44:13;4.10;;;3.70;;
1475;SDS011;730;48.870;12.542;2023-01-10T08:46:40;3.80;;;3.03;;
1475;SDS011;730;48.870;12.542;2023-01-10T08:49:07;2.92;;;2.60;;
1475;SDS011;730;48.870;12.542;2023-01-10T08:51:33;5.00;;;4.40;;
1475;SDS011;730;48.870;12.542;2023-01-10T08:54:01;3.83;;;3.42;;
1475;SDS011;730;48.870;12.542;2023-01-10T08:56:27;5.20;;;3.97;;
1475;SDS011;730;48.870;12.542;2023-01-10T08:58:53;3.92;;;3.53;;
1475;SDS011;730;48.870;12.542;2023-01-10T09:01:19;3.00;;;2.70;;
1475;SDS011;730;48.870;12.542;2023-01-10T09:03:45;4.53;;;3.35;;
1475;SDS011;730;48.870;12.542;2023-01-10T09:06:12;4.75;;;3.83;;
1475;SDS011;730;48.870;12.542;2023-01-10T09:08:39;4.05;;;3.65;;
1475;SDS011;730;48.870;12.542;2023-01-10T09:11:05;6.63;;;2.87;;
1475;SDS011;730;48.870;12.542;2023-01-10T09:13:31;4.20;;;3.35;;
1475;SDS011;730;48.870;12.542;2023-01-10T09:15:58;3.90;;;3.25;;
1475;SDS011;730;48.870;12.542;2023-01-10T09:18:25;4.72;;;3.95;;
1475;SDS011;730;48.870;12.542;2023-01-10T09:20:51;3.42;;;3.13;;
1475;SDS011;730;48.870;12.542;2023-01-10T09:23:18;4.00;;;3.40;;
1475;SDS011;730;48.870;12.542;2023-01-10T09:25:48;4.75;;;3.50;;
1475;SDS011;730;48.870;12.542;2023-01-10T09:28:15;4.20;;;3.55;;
1475;SDS011;730;48.870;12.542;2023-01-10T09:30:42;3.50;;;3.20;;
1475;SDS011;730;48.870;12.542;2023-01-10T09:33:08;5.28;;;4.65;;
1475;SDS011;730;48.870;12.542;2023-01-10T09:35:35;5.60;;;3.25;;
1475;SDS011;730;48.870;12.542;2023-01-10T09:38:03;3.85;;;3.45;;
1475;SDS011;730;48.870;12.542;2023-01-10T09:48:55;4.13;;;3.72;;
1475;SDS011;730;48.870;12.542;2023-01-10T09:51:40;4.60;;;3.85;;
1475;SDS011;730;48.870;12.542;2023-01-10T09:54:10;4.00;;;3.30;;
1475;SDS011;730;48.870;12.542;2023-01-10T09:56:40;7.10;;;2.80;;
1475;SDS011;730;48.870;12.542;2023-01-10T09:59:24;3.83;;;2.80;;
1475;SDS011;730;48.870;12.542;2023-01-10T10:01:58;3.33;;;2.75;;
1475;SDS011;730;48.870;12.542;2023-01-10T10:04:35;3.70;;;2.65;;
1475;SDS011;730;48.870;12.542;2023-01-10T10:07:04;4.13;;;3.53;;
1475;SDS011;730;48.870;12.542;2023-01-10T10:09:37;3.00;;;2.50;;
1475;SDS011;730;48.870;12.542;2023-01-10T10:15:02;2.53;;;2.00;;
1475;SDS011;730;48.870;12.542;2023-01-10T10:18:17;3.58;;;2.45;;
1475;SDS011;730;48.870;12.542;2023-01-10T10:20:49;3.00;;;2.65;;
1475;SDS011;730;48.870;12.542;2023-01-10T10:23:39;2.80;;;2.30;;
1475;SDS011;730;48.870;12.542;2023-01-10T10:26:28;3.78;;;2.65;;
1475;SDS011;730;48.870;12.542;2023-01-10T10:31:56;2.10;;;1.52;;
1475;SDS011;730;48.870;12.542;2023-01-10T10:35:12;2.35;;;1.85;;
1475;SDS011;730;48.870;12.542;2023-01-10T10:37:49;3.08;;;1.70;;
1475;SDS011;730;48.870;12.542;2023-01-10T10:42:54;5.47;;;3.20;;
1475;SDS011;730;48.870;12.542;2023-01-10T10:53:28;5.00;;;3.90;;
1475;SDS011;730;48.870;12.542;2023-01-10T10:56:00;9.85;;;6.80;;
1475;SDS011;730;48.870;12.542;2023-01-10T10:58:28;6.22;;;4.30;;
1475;SDS011;730;48.870;12.542;2023-01-10T11:00:59;9.98;;;5.72;;
1475;SDS011;730;48.870;12.542;2023-01-10T11:06:01;2.95;;;2.60;;
1475;SDS011;730;48.870;12.542;2023-01-10T11:08:27;4.82;;;3.42;;
1475;SDS011;730;48.870;12.542;2023-01-10T11:10:56;3.25;;;2.42;;
1475;SDS011;730;48.870;12.542;2023-01-10T11:16:05;2.60;;;2.10;;
1475;SDS011;730;48.870;12.542;2023-01-10T11:18:32;3.10;;;2.67;;
1475;SDS011;730;48.870;12.542;2023-01-10T11:21:07;3.72;;;3.15;;
1475;SDS011;730;48.870;12.542;2023-01-10T11:23:53;3.45;;;2.28;;
1475;SDS011;730;48.870;12.542;2023-01-10T11:29:08;5.28;;;2.63;;
1475;SDS011;730;48.870;12.542;2023-01-10T11:31:39;5.70;;;2.30;;
1475;SDS011;730;48.870;12.542;2023-01-10T11:34:26;6.25;;;3.17;;
1475;SDS011;730;48.870;12.542;2023-01-10T11:37:11;3.50;;;2.67;;
1475;SDS011;730;48.870;12.542;2023-01-10T11:39:47;3.30;;;2.58;;
1475;SDS011;730;48.870;12.542;2023-01-10T11:42:26;3.47;;;2.83;;
1475;SDS011;730;48.870;12.542;2023-01-10T11:44:55;4.88;;;3.00;;
1475;SDS011;730;48.870;12.542;2023-01-10T11:47:42;4.13;;;2.30;;
1475;SDS011;730;48.870;12.542;2023-01-10T11:50:24;4.28;;;2.83;;
1475;SDS011;730;48.870;12.542;2023-01-10T11:52:54;5.97;;;4.35;;
1475;SDS011;730;48.870;12.542;2023-01-10T11:55:27;3.33;;;3.03;;
1475;SDS011;730;48.870;12.542;2023-01-10T12:00:30;4.28;;;2.95;;
1475;SDS011;730;48.870;12.542;2023-01-10T12:03:13;3.30;;;2.50;;
1475;SDS011;730;48.870;12.542;2023-01-10T12:05:48;3.57;;;3.27;;
1475;SDS011;730;48.870;12.542;2023-01-10T12:08:23;3.72;;;2.38;;
1475;SDS011;730;48.870;12.542;2023-01-10T12:11:00;3.72;;;2.83;;
1475;SDS011;730;48.870;12.542;2023-01-10T12:13:49;5.40;;;2.63;;
1475;SDS011;730;48.870;12.542;2023-01-10T12:16:28;3.50;;;2.50;;
1475;SDS011;730;48.870;12.542;2023-01-10T12:18:59;5.50;;;2.40;;
1475;SDS011;730;48.870;12.542;2023-01-10T12:21:30;4.45;;;2.30;;
1475;SDS011;730;48.870;12.542;2023-01-10T12:24:43;2.88;;;2.30;;
1475;SDS011;730;48.870;12.542;2023-01-10T12:27:05;3.93;;;2.30;;
1475;SDS011;730;48.870;12.542;2023-01-10T12:29:39;2.83;;;2.50;;
1475;SDS011;730;48.870;12.542;2023-01-10T12:32:22;3.65;;;2.90;;
1475;SDS011;730;48.870;12.542;2023-01-10T12:34:54;3.55;;;2.35;;
1475;SDS011;730;48.870;12.542;2023-01-10T12:37:30;4.07;;;2.50;;
1475;SDS011;730;48.870;12.542;2023-01-10T12:40:29;5.05;;;2.00;;
1475;SDS011;730;48.870;12.542;2023-01-10T12:42:59;3.85;;;2.35;;
1475;SDS011;730;48.870;12.542;2023-01-10T12:45:58;2.88;;;2.22;;
1475;SDS011;730;48.870;12.542;2023-01-10T12:51:14;6.80;;;2.40;;
1475;SDS011;730;48.870;12.542;2023-01-10T12:53:47;8.60;;;3.00;;
1475;SDS011;730;48.870;12.542;2023-01-10T12:56:27;5.55;;;2.63;;
1475;SDS011;730;48.870;12.542;2023-01-10T12:58:59;5.57;;;2.47;;
1475;SDS011;730;48.870;12.542;2023-01-10T13:01:30;4.47;;;2.20;;
1475;SDS011;730;48.870;12.542;2023-01-10T13:04:01;6.88;;;4.45;;
1475;SDS011;730;48.870;12.542;2023-01-10T13:06:34;3.67;;;2.70;;
1475;SDS011;730;48.870;12.542;2023-01-10T13:09:04;3.00;;;2.40;;
1475;SDS011;730;48.870;12.542;2023-01-10T13:11:39;2.72;;;2.15;;
1475;SDS011;730;48.870;12.542;2023-01-10T13:14:13;4.30;;;3.20;;
1475;SDS011;730;48.870;12.542;2023-01-10T13:16:47;6.03;;;2.70;;
1475;SDS011;730;48.870;12.542;2023-01-10T13:21:48;4.68;;;2.10;;
1475;SDS011;730;48.870;12.542;2023-01-10T13:24:21;5.05;;;2.58;;
1475;SDS011;730;48.870;12.542;2023-01-10T13:26:53;3.60;;;2.17;;
1475;SDS011;730;48.870;12.542;2023-01-10T13:29:24;3.72;;;1.90;;
1475;SDS011;730;48.870;12.542;2023-01-10T13:31:54;4.60;;;2.10;;
1475;SDS011;730;48.870;12.542;2023-01-10T13:34:24;7.50;;;2.75;;
1475;SDS011;730;48.870;12.542;2023-01-10T13:37:00;5.13;;;2.40;;
1475;SDS011;730;48.870;12.542;2023-01-10T13:58:03;4.25;;;2.00;;
1475;SDS011;730;48.870;12.542;2023-01-10T14:03:40;5.80;;;2.73;;
1475;SDS011;730;48.870;12.542;2023-01-10T14:11:53;4.95;;;2.20;;
1475;SDS011;730;48.870;12.542;2023-01-10T14:22:30;4.35;;;1.90;;
1475;SDS011;730;48.870;12.542;2023-01-10T14:25:00;7.45;;;2.58;;
1475;SDS011;730;48.870;12.542;2023-01-10T14:27:36;4.18;;;2.05;;
1475;SDS011;730;48.870;12.542;2023-01-10T14:30:19;4.05;;;2.05;;
1475;SDS011;730;48.870;12.542;2023-01-10T14:32:59;4.70;;;2.30;;
1475;SDS011;730;48.870;12.542;2023-01-10T14:35:32;7.47;;;2.03;;
1475;SDS011;730;48.870;12.542;2023-01-10T14:38:02;3.65;;;2.70;;
1475;SDS011;730;48.870;12.542;2023-01-10T14:43:08;6.13;;;2.30;;
1475;SDS011;730;48.870;12.542;2023-01-10T14:51:07;7.32;;;2.30;;
1475;SDS011;730;48.870;12.542;2023-01-10T14:53:34;2.08;;;1.60;;
1475;SDS011;730;48.870;12.542;2023-01-10T14:56:00;3.80;;;1.90;;
1475;SDS011;730;48.870;12.542;2023-01-10T14:58:26;2.95;;;1.50;;
1475;SDS011;730;48.870;12.542;2023-01-10T15:00:53;4.95;;;1.80;;
1475;SDS011;730;48.870;12.542;2023-01-10T15:03:21;5.32;;;2.10;;
1475;SDS011;730;48.870;12.542;2023-01-10T15:05:50;4.35;;;2.25;;
1475;SDS011;730;48.870;12.542;2023-01-10T15:08:26;5.35;;;2.72;;
1475;SDS011;730;48.870;12.542;2023-01-10T15:10:55;4.20;;;2.15;;
1475;SDS011;730;48.870;12.542;2023-01-10T15:13:26;5.63;;;2.35;;
1475;SDS011;730;48.870;12.542;2023-01-10T15:15:54;4.03;;;2.42;;
1475;SDS011;730;48.870;12.542;2023-01-10T15:18:28;4.32;;;2.53;;
1475;SDS011;730;48.870;12.542;2023-01-10T15:21:05;5.55;;;3.00;;
1475;SDS011;730;48.870;12.542;2023-01-10T15:23:32;4.72;;;2.50;;
1475;SDS011;730;48.870;12.542;2023-01-10T15:31:39;6.38;;;2.63;;
1475;SDS011;730;48.870;12.542;2023-01-10T15:34:07;5.32;;;2.90;;
1475;SDS011;730;48.870;12.542;2023-01-10T15:36:35;10.35;;;4.55;;
1475;SDS011;730;48.870;12.542;2023-01-10T15:39:12;6.85;;;4.10;;
1475;SDS011;730;48.870;12.542;2023-01-10T15:41:55;4.35;;;3.72;;
1475;SDS011;730;48.870;12.542;2023-01-10T15:44:43;3.50;;;2.90;;
1475;SDS011;730;48.870;12.542;2023-01-10T15:49:57;8.68;;;3.22;;
1475;SDS011;730;48.870;12.542;2023-01-10T15:52:23;6.10;;;3.28;;
1475;SDS011;730;48.870;12.542;2023-01-10T15:54:49;5.97;;;3.72;;
1475;SDS011;730;48.870;12.542;2023-01-10T15:57:26;9.85;;;4.03;;
1475;SDS011;730;48.870;12.542;2023-01-10T15:59:55;3.97;;;2.83;;
1475;SDS011;730;48.870;12.542;2023-01-10T16:02:30;3.88;;;2.03;;
1475;SDS011;730;48.870;12.542;2023-01-10T16:04:58;4.57;;;2.60;;
1475;SDS011;730;48.870;12.542;2023-01-10T16:07:32;7.47;;;2.78;;
1475;SDS011;730;48.870;12.542;2023-01-10T16:12:35;5.25;;;3.05;;
1475;SDS011;730;48.870;12.542;2023-01-10T16:15:23;4.53;;;2.75;;
1475;SDS011;730;48.870;12.542;2023-01-10T16:17:51;6.03;;;3.67;;
1475;SDS011;730;48.870;12.542;2023-01-10T16:20:18;3.53;;;2.63;;
1475;SDS011;730;48.870;12.542;2023-01-10T16:22:51;5.60;;;2.95;;
1475;SDS011;730;48.870;12.542;2023-01-10T16:25:19;6.03;;;3.38;;
1475;SDS011;730;48.870;12.542;2023-01-10T16:27:56;4.95;;;3.20;;
1475;SDS011;730;48.870;12.542;2023-01-10T16:30:30;5.45;;;3.47;;
1475;SDS011;730;48.870;12.542;2023-01-10T16:33:04;6.32;;;4.00;;
1475;SDS011;730;48.870;12.542;2023-01-10T16:35:35;4.60;;;3.22;;
1475;SDS011;730;48.870;12.542;2023-01-10T16:38:01;3.30;;;3.00;;
1475;SDS011;730;48.870;12.542;2023-01-10T16:40:38;5.95;;;3.35;;
1475;SDS011;730;48.870;12.542;2023-01-10T16:43:06;4.43;;;2.67;;
1475;SDS011;730;48.870;12.542;2023-01-10T16:48:16;6.35;;;3.17;;
1475;SDS011;730;48.870;12.542;2023-01-10T16:50:44;4.45;;;2.95;;
1475;SDS011;730;48.870;12.542;2023-01-10T16:53:12;5.47;;;3.33;;
1475;SDS011;730;48.870;12.542;2023-01-10T16:58:08;4.30;;;3.53;;
1475;SDS011;730;48.870;12.542;2023-01-10T17:00:36;7.90;;;3.92;;
1475;SDS011;730;48.870;12.542;2023-01-10T17:03:04;5.47;;;4.30;;
1475;SDS011;730;48.870;12.542;2023-01-10T17:05:34;6.38;;;4.30;;
1475;SDS011;730;48.870;12.542;2023-01-10T17:08:02;6.88;;;4.80;;
1475;SDS011;730;48.870;12.542;2023-01-10T17:10:31;8.20;;;4.30;;
1475;SDS011;730;48.870;12.542;2023-01-10T17:13:00;5.45;;;3.65;;
1475;SDS011;730;48.870;12.542;2023-01-10T17:15:28;6.22;;;4.28;;
1475;SDS011;730;48.870;12.542;2023-01-10T17:17:55;6.47;;;3.47;;
1475;SDS011;730;48.870;12.542;2023-01-10T17:20:21;4.68;;;2.80;;
1475;SDS011;730;48.870;12.542;2023-01-10T17:22:47;5.75;;;3.50;;
1475;SDS011;730;48.870;12.542;2023-01-10T17:25:14;10.43;;;4.13;;
1475;SDS011;730;48.870;12.542;2023-01-10T17:27:45;7.38;;;4.50;;
1475;SDS011;730;48.870;12.542;2023-01-10T17:30:11;6.10;;;4.82;;
1475;SDS011;730;48.870;12.542;2023-01-10T17:32:38;8.68;;;5.80;;
1475;SDS011;730;48.870;12.542;2023-01-10T17:35:04;5.97;;;3.83;;
1475;SDS011;730;48.870;12.542;2023-01-10T17:37:31;8.00;;;4.20;;
1475;SDS011;730;48.870;12.542;2023-01-10T17:40:03;5.97;;;3.15;;
1475;SDS011;730;48.870;12.542;2023-01-10T17:42:29;4.85;;;2.90;;
1475;SDS011;730;48.870;12.542;2023-01-10T17:44:55;3.95;;;3.20;;
1475;SDS011;730;48.870;12.542;2023-01-10T17:47:21;3.80;;;3.45;;
1475;SDS011;730;48.870;12.542;2023-01-10T17:49:48;11.20;;;5.28;;
1475;SDS011;730;48.870;12.542;2023-01-10T17:52:14;12.73;;;7.93;;
1475;SDS011;730;48.870;12.542;2023-01-10T17:54:40;21.40;;;16.25;;
1475;SDS011;730;48.870;12.542;2023-01-10T17:57:06;31.30;;;22.75;;